Time;durP1;ratioP1;P1;durP2;ratioP2;P2;SDS_P1;SDS_P2;PMS_P1;PMS_P2;Temp;Humidity;BMP_temperature;BMP_pressure;BME280_temperature;BME280_humidity;BME280_pressure;Samples;Min_cycle;Max_cycle;Signal;HPM_P1;HPM_P2
2023/12/13 00:02:12;;;;;;;8.53;5.70;;;6.90;99.90;;;;;;4927374;28;20776;-70
2023/12/13 00:04:39;;;;;;;8.73;6.10;;;7.00;99.90;;;;;;4915727;28;20231;-70
2023/12/13 00:07:06;;;;;;;9.17;5.63;;;6.90;99.90;;;;;;4952007;28;20231;-70
2023/12/13 00:09:33;;;;;;;8.70;5.27;;;7.00;99.90;;;;;;4959453;28;20210;-70
2023/12/13 00:12:00;;;;;;;7.47;5.57;;;7.10;99.90;;;;;;4947779;28;20230;-70
2023/12/13 00:14:27;;;;;;;10.30;5.50;;;7.00;99.90;;;;;;4955892;28;20210;-70
2023/12/13 00:16:55;;;;;;;7.00;5.47;;;7.00;99.90;;;;;;4942200;28;20228;-70
2023/12/13 00:19:22;;;;;;;7.30;5.03;;;7.00;99.90;;;;;;4905683;28;20685;-70
2023/12/13 00:21:49;;;;;;;7.80;4.97;;;6.80;99.90;;;;;;4955646;28;20592;-70
2023/12/13 00:24:16;;;;;;;8.60;5.50;;;7.00;99.90;;;;;;4950376;28;20206;-70
2023/12/13 00:26:43;;;;;;;6.10;4.87;;;7.00;99.90;;;;;;4964022;28;20608;-70
2023/12/13 00:29:10;;;;;;;11.93;4.80;;;7.00;99.90;;;;;;4953985;28;20297;-70
2023/12/13 00:31:40;;;;;;;7.67;5.00;;;7.00;99.90;;;;;;4954456;28;20203;-70
2023/12/13 00:34:08;;;;;;;7.47;5.43;;;7.00;99.90;;;;;;4888405;28;20434;-70
2023/12/13 00:36:35;;;;;;;7.07;5.30;;;7.00;99.90;;;;;;4957167;28;20206;-70
2023/12/13 00:39:03;;;;;;;8.53;5.07;;;7.00;99.90;;;;;;4948788;28;20832;-70
2023/12/13 00:41:29;;;;;;;9.03;5.43;;;7.00;99.90;;;;;;4955144;28;20204;-70
2023/12/13 00:43:56;;;;;;;10.03;5.33;;;7.00;99.90;;;;;;4950168;28;20671;-70
2023/12/13 00:46:24;;;;;;;8.73;5.27;;;7.00;99.90;;;;;;4947365;28;20654;-70
2023/12/13 00:48:51;;;;;;;7.17;5.53;;;7.20;99.90;;;;;;4922897;28;20223;-70
2023/12/13 00:51:20;;;;;;;8.73;5.63;;;7.00;99.90;;;;;;4939301;28;20678;-70
2023/12/13 00:53:47;;;;;;;12.00;6.00;;;7.10;99.90;;;;;;4956397;28;20237;-69
2023/12/13 00:56:15;;;;;;;10.90;6.33;;;7.90;99.90;;;;;;4942191;28;20400;-70
2023/12/13 00:58:43;;;;;;;8.07;5.53;;;7.00;99.90;;;;;;4956047;28;20199;-70
2023/12/13 01:01:10;;;;;;;10.67;5.57;;;7.00;99.90;;;;;;4946587;28;20313;-70
2023/12/13 01:03:39;;;;;;;10.30;5.70;;;7.00;99.90;;;;;;4947122;28;20444;-70
2023/12/13 01:06:09;;;;;;;6.90;5.67;;;6.90;99.90;;;;;;4910177;28;20204;-70
2023/12/13 01:08:37;;;;;;;9.07;5.47;;;7.00;99.90;;;;;;4952748;28;20493;-70
2023/12/13 01:11:08;;;;;;;8.40;5.60;;;7.00;99.90;;;;;;4947830;28;20695;-70
2023/12/13 01:13:35;;;;;;;8.73;5.40;;;7.00;99.90;;;;;;4958808;28;20860;-70
2023/12/13 01:16:02;;;;;;;8.90;6.00;;;7.00;99.90;;;;;;4953416;28;20255;-70
2023/12/13 01:18:29;;;;;;;7.93;5.70;;;7.20;99.90;;;;;;4944737;28;20212;-70
2023/12/13 01:20:56;;;;;;;11.43;5.83;;;7.00;99.90;;;;;;4920760;28;20222;-70
2023/12/13 01:23:23;;;;;;;11.07;6.10;;;7.00;99.90;;;;;;4951249;28;20200;-70
2023/12/13 01:25:51;;;;;;;11.93;6.37;;;7.00;99.90;;;;;;4956580;28;20222;-70
2023/12/13 01:28:18;;;;;;;8.90;6.13;;;7.00;99.90;;;;;;4954062;28;20241;-70
2023/12/13 01:30:45;;;;;;;13.30;6.00;;;7.00;99.90;;;;;;4950088;28;20965;-70
2023/12/13 01:33:11;;;;;;;9.87;6.00;;;7.20;99.90;;;;;;4953735;28;20203;-70
2023/12/13 01:35:38;;;;;;;14.03;6.50;;;6.40;99.90;;;;;;4910148;28;20209;-70
2023/12/13 01:38:05;;;;;;;8.50;5.80;;;7.10;99.90;;;;;;4951885;28;20203;-70
2023/12/13 01:40:32;;;;;;;10.30;6.27;;;7.00;99.90;;;;;;4951373;28;20204;-70
2023/12/13 01:43:00;;;;;;;16.47;6.23;;;7.00;99.90;;;;;;4946767;28;20204;-70
2023/12/13 01:45:27;;;;;;;10.47;6.43;;;7.20;99.90;;;;;;4953478;28;20206;-70
2023/12/13 01:47:54;;;;;;;11.43;6.50;;;7.00;99.90;;;;;;4941757;28;20426;-70
2023/12/13 01:50:25;;;;;;;12.53;6.30;;;7.00;99.90;;;;;;4939749;28;21380;-70
2023/12/13 01:52:53;;;;;;;8.73;6.40;;;7.00;99.90;;;;;;4922618;28;20505;-70
2023/12/13 01:55:20;;;;;;;13.70;6.30;;;7.00;99.90;;;;;;4952960;28;20203;-70
2023/12/13 01:57:47;;;;;;;16.00;6.67;;;7.50;99.90;;;;;;4949184;28;20425;-70
2023/12/13 02:00:17;;;;;;;9.97;6.13;;;7.10;99.90;;;;;;4948650;28;21960;-70
2023/12/13 02:02:45;;;;;;;14.07;6.43;;;7.00;99.90;;;;;;4953845;28;20663;-70
2023/12/13 02:05:14;;;;;;;12.73;6.67;;;7.00;99.90;;;;;;4937452;28;20748;-70
2023/12/13 02:07:42;;;;;;;8.67;6.27;;;7.00;99.90;;;;;;4912971;28;20219;-70
2023/12/13 02:10:10;;;;;;;12.37;6.93;;;7.10;99.90;;;;;;4953634;28;20229;-70
2023/12/13 02:12:38;;;;;;;12.53;6.50;;;7.00;99.90;;;;;;4948962;28;20295;-70
2023/12/13 02:15:06;;;;;;;10.20;6.87;;;7.00;99.90;;;;;;4949267;28;20209;-70
2023/12/13 02:17:34;;;;;;;10.63;6.73;;;7.00;99.90;;;;;;4947469;28;20200;-70
2023/12/13 02:20:01;;;;;;;31.43;15.03;;;7.10;99.90;;;;;;4947791;28;20294;-70
2023/12/13 02:22:30;;;;;;;69.17;22.53;;;7.00;99.90;;;;;;4929538;28;20204;-70
2023/12/13 02:24:59;;;;;;;54.53;20.10;;;7.00;99.90;;;;;;4930817;28;20612;-70
2023/12/13 02:27:29;;;;;;;34.73;14.57;;;7.10;99.90;;;;;;4955233;28;20266;-70
2023/12/13 02:29:56;;;;;;;20.90;9.37;;;7.00;99.90;;;;;;4949322;28;21290;-70
2023/12/13 02:32:24;;;;;;;16.10;8.10;;;7.00;99.90;;;;;;4955226;28;20384;-70
2023/12/13 02:34:51;;;;;;;14.73;7.77;;;7.00;99.90;;;;;;4935130;28;20689;-70
2023/12/13 02:37:18;;;;;;;13.80;7.60;;;7.00;99.90;;;;;;4941953;28;20295;-70
2023/12/13 02:39:46;;;;;;;8.87;6.43;;;8.20;99.90;;;;;;4917093;28;20277;-70
2023/12/13 02:42:14;;;;;;;9.63;6.67;;;7.00;99.90;;;;;;4951585;28;20312;-70
2023/12/13 02:44:42;;;;;;;12.33;7.07;;;7.00;99.90;;;;;;4955478;28;20203;-70
2023/12/13 02:47:09;;;;;;;12.77;7.20;;;7.00;99.90;;;;;;4944570;28;20305;-70
2023/12/13 02:49:36;;;;;;;9.10;6.03;;;7.00;99.90;;;;;;4951125;28;20858;-70
2023/12/13 02:52:04;;;;;;;8.27;6.17;;;7.00;99.90;;;;;;4930236;28;20215;-70
2023/12/13 02:54:30;;;;;;;9.87;6.07;;;7.00;99.90;;;;;;4907127;28;20207;-70
2023/12/13 02:56:59;;;;;;;8.53;5.50;;;7.00;99.90;;;;;;4944246;28;21203;-70
2023/12/13 02:59:25;;;;;;;11.30;6.27;;;7.10;99.90;;;;;;4943817;28;20199;-70
2023/12/13 03:01:52;;;;;;;10.30;5.97;;;7.00;99.90;;;;;;4946776;28;20660;-70
2023/12/13 03:04:19;;;;;;;8.27;6.20;;;7.00;99.90;;;;;;4948817;28;20422;-70
2023/12/13 03:06:46;;;;;;;8.67;4.90;;;7.10;99.90;;;;;;4939094;28;20204;-70
2023/12/13 03:09:13;;;;;;;10.67;6.23;;;7.10;99.90;;;;;;4938766;28;20424;-70
2023/12/13 03:11:40;;;;;;;7.13;5.23;;;7.00;99.90;;;;;;4916989;28;20208;-70
2023/12/13 03:14:09;;;;;;;6.33;5.47;;;7.10;99.90;;;;;;4947905;28;20864;-70
2023/12/13 03:16:36;;;;;;;8.03;5.60;;;7.10;99.90;;;;;;4949987;28;20196;-70
2023/12/13 03:19:03;;;;;;;10.27;6.00;;;7.00;99.90;;;;;;4949590;28;20207;-70
2023/12/13 03:21:30;;;;;;;9.53;5.03;;;7.00;99.90;;;;;;4950088;28;20206;-70
2023/12/13 03:23:56;;;;;;;10.47;6.23;;;7.00;99.90;;;;;;4945310;28;20648;-70
2023/12/13 03:26:23;;;;;;;9.33;5.50;;;7.00;99.90;;;;;;4920526;28;20199;-70
2023/12/13 03:28:50;;;;;;;9.50;4.90;;;7.10;99.90;;;;;;4959153;28;20225;-70
2023/12/13 03:31:18;;;;;;;6.80;5.40;;;6.90;99.90;;;;;;4951604;28;20230;-70
2023/12/13 03:33:45;;;;;;;7.47;5.03;;;7.10;99.90;;;;;;4956685;28;20661;-70
2023/12/13 03:36:15;;;;;;;7.80;4.90;;;7.10;99.90;;;;;;4952288;28;20308;-70
2023/12/13 03:38:44;;;;;;;5.60;4.80;;;7.00;99.90;;;;;;4945046;28;20206;-70
2023/12/13 03:41:11;;;;;;;5.93;4.53;;;7.00;99.90;;;;;;4915311;28;20854;-70
2023/12/13 03:43:40;;;;;;;7.23;5.30;;;7.00;99.90;;;;;;4958615;28;20632;-70
2023/12/13 03:46:07;;;;;;;5.73;4.43;;;7.10;99.90;;;;;;4949507;28;20332;-70
2023/12/13 03:48:36;;;;;;;7.93;5.30;;;7.10;99.90;;;;;;4956498;28;20219;-70
2023/12/13 03:51:04;;;;;;;7.67;5.23;;;7.10;99.90;;;;;;4938533;28;20235;-70
2023/12/13 03:53:31;;;;;;;6.23;4.70;;;7.00;99.90;;;;;;4944430;28;20587;-70
2023/12/13 03:55:58;;;;;;;46.33;18.40;;;7.10;99.90;;;;;;4947689;28;21017;-70
2023/12/13 03:58:25;;;;;;;87.47;25.33;;;7.10;99.90;;;;;;4918296;28;20619;-70
2023/12/13 04:00:52;;;;;;;91.77;26.30;;;7.00;99.90;;;;;;4958500;28;20199;-70
2023/12/13 04:03:19;;;;;;;70.67;21.50;;;7.10;99.90;;;;;;4953447;28;20224;-70
2023/12/13 04:05:47;;;;;;;33.67;13.00;;;7.10;99.90;;;;;;4948597;28;20226;-70
2023/12/13 04:08:14;;;;;;;20.90;8.77;;;7.10;99.90;;;;;;4955210;28;20362;-70
2023/12/13 04:10:41;;;;;;;12.00;7.17;;;7.00;99.90;;;;;;4944519;28;20888;-70
2023/12/13 04:13:08;;;;;;;9.27;5.97;;;7.20;99.90;;;;;;4916996;28;21253;-70
2023/12/13 04:15:35;;;;;;;10.10;6.77;;;;;;;;;;4955761;28;20202;-70
2023/12/13 04:18:02;;;;;;;9.37;6.27;;;7.10;99.90;;;;;;4950529;28;20229;-70
2023/12/13 04:20:30;;;;;;;10.30;6.70;;;7.10;99.90;;;;;;4956583;28;20227;-70
2023/12/13 04:22:59;;;;;;;9.60;6.67;;;7.10;99.90;;;;;;4943654;28;20203;-70
2023/12/13 04:25:25;;;;;;;9.63;6.57;;;7.10;99.90;;;;;;4940061;28;20205;-70
2023/12/13 04:27:52;;;;;;;11.53;6.87;;;7.10;99.90;;;;;;4946023;28;20802;-70
2023/12/13 04:30:19;;;;;;;12.73;7.43;;;7.10;99.90;;;;;;4905204;28;20731;-70
2023/12/13 04:32:46;;;;;;;11.63;7.40;;;7.10;99.90;;;;;;4947539;28;20940;-70
2023/12/13 04:35:13;;;;;;;12.07;7.78;;;7.10;99.90;;;;;;4949658;28;20282;-70
2023/12/13 04:37:40;;;;;;;13.37;7.50;;;7.10;99.90;;;;;;4944632;28;20210;-70
2023/12/13 04:40:10;;;;;;;15.67;7.40;;;7.10;99.90;;;;;;4946275;28;20204;-70
2023/12/13 04:42:37;;;;;;;14.60;6.90;;;7.10;99.90;;;;;;4936964;28;20211;-70
2023/12/13 04:45:05;;;;;;;15.10;7.33;;;7.10;99.90;;;;;;4902504;28;20442;-70
2023/12/13 04:47:32;;;;;;;9.97;6.73;;;7.10;99.90;;;;;;4948848;28;20200;-70
2023/12/13 04:49:59;;;;;;;10.50;7.73;;;7.00;99.90;;;;;;4941683;28;20247;-70
2023/12/13 04:52:26;;;;;;;13.33;7.73;;;7.10;99.90;;;;;;4938045;28;20603;-70
2023/12/13 04:54:53;;;;;;;11.50;7.73;;;7.10;99.90;;;;;;4945393;28;20203;-70
2023/12/13 04:57:21;;;;;;;9.53;6.87;;;6.00;99.90;;;;;;4934370;28;20230;-70
2023/12/13 04:59:48;;;;;;;13.20;7.43;;;7.10;99.90;;;;;;4904123;28;20367;-70
2023/12/13 05:02:15;;;;;;;12.83;7.40;;;7.10;99.90;;;;;;4912172;28;20254;-70
2023/12/13 05:04:42;;;;;;;11.00;7.30;;;7.00;99.90;;;;;;4934785;28;20673;-70
2023/12/13 05:07:09;;;;;;;12.67;7.27;;;7.00;99.90;;;;;;4942788;28;20688;-70
2023/12/13 05:09:36;;;;;;;14.77;7.70;;;7.00;99.90;;;;;;4929963;28;20234;-70
2023/12/13 05:12:03;;;;;;;14.37;7.93;;;7.00;99.90;;;;;;4952170;28;20200;-70
2023/12/13 05:14:31;;;;;;;10.40;7.50;;;7.90;99.90;;;;;;4893995;28;20852;-70
2023/12/13 05:16:58;;;;;;;13.23;8.03;;;7.10;99.90;;;;;;4948791;28;20210;-70
2023/12/13 05:19:25;;;;;;;14.87;8.13;;;7.00;99.90;;;;;;4945006;28;20449;-70
2023/12/13 05:21:52;;;;;;;14.10;8.10;;;7.00;99.90;;;;;;4939894;28;20207;-70
2023/12/13 05:24:18;;;;;;;13.97;7.43;;;7.00;99.90;;;;;;4927480;28;20204;-70
2023/12/13 05:26:46;;;;;;;11.07;7.70;;;7.00;99.90;;;;;;4952101;28;20748;-70
2023/12/13 05:29:12;;;;;;;10.87;7.20;;;7.00;99.90;;;;;;4902383;28;20235;-70
2023/12/13 05:31:41;;;;;;;11.93;6.93;;;7.00;99.90;;;;;;4937345;28;20297;-70
2023/12/13 05:34:08;;;;;;;11.03;7.17;;;;;;;;;;4938925;28;20232;-70
2023/12/13 05:36:35;;;;;;;12.50;6.97;;;6.90;99.90;;;;;;4950574;28;20265;-70
2023/12/13 05:39:02;;;;;;;11.77;7.13;;;7.00;99.90;;;;;;4924612;28;20223;-70
2023/12/13 05:41:30;;;;;;;10.90;8.00;;;7.00;99.90;;;;;;4930784;28;20426;-70
2023/12/13 05:43:57;;;;;;;14.70;7.60;;;7.00;99.90;;;;;;4926795;28;20472;-70
2023/12/13 05:46:24;;;;;;;14.17;7.30;;;7.00;99.90;;;;;;4889461;28;20286;-70
2023/12/13 05:48:52;;;;;;;14.40;7.73;;;;;;;;;;4942905;28;20346;-70
2023/12/13 05:51:19;;;;;;;12.23;7.90;;;6.90;99.90;;;;;;4945996;28;20429;-70
2023/12/13 05:53:46;;;;;;;13.93;8.00;;;7.00;99.90;;;;;;4938734;28;20331;-70
2023/12/13 05:56:13;;;;;;;10.67;7.50;;;6.80;99.90;;;;;;4925081;28;20318;-70
2023/12/13 05:58:40;;;;;;;14.77;7.77;;;6.90;99.90;;;;;;4935958;28;20224;-70
2023/12/13 06:01:07;;;;;;;13.60;8.33;;;6.90;99.90;;;;;;4916047;28;20207;-70
2023/12/13 06:03:34;;;;;;;13.33;7.73;;;7.00;99.90;;;;;;4948196;28;20230;-70
2023/12/13 06:06:02;;;;;;;10.77;7.20;;;7.00;99.90;;;;;;4941285;28;20234;-70
2023/12/13 06:08:29;;;;;;;13.57;7.63;;;7.00;99.90;;;;;;4941299;28;20227;-70
2023/12/13 06:10:57;;;;;;;11.03;7.70;;;7.00;99.90;;;;;;4937846;28;20233;-70
2023/12/13 06:13:24;;;;;;;11.30;6.80;;;7.20;99.90;;;;;;4934291;28;20713;-70
2023/12/13 06:15:51;;;;;;;10.07;6.40;;;6.90;99.90;;;;;;4910493;28;20219;-70
2023/12/13 06:18:18;;;;;;;13.80;7.70;;;6.90;99.90;;;;;;4945549;28;20866;-70
2023/12/13 06:20:45;;;;;;;11.80;6.63;;;6.90;99.90;;;;;;4954584;28;20192;-69
2023/12/13 06:23:13;;;;;;;11.87;7.27;;;6.90;99.90;;;;;;4949132;28;20322;-70
2023/12/13 06:25:40;;;;;;;12.60;7.33;;;6.90;99.90;;;;;;4938213;28;20199;-70
2023/12/13 06:28:07;;;;;;;11.53;6.70;;;6.90;99.90;;;;;;4924588;28;20206;-70
2023/12/13 06:30:34;;;;;;;11.57;7.07;;;6.90;99.90;;;;;;4943134;28;20850;-70
2023/12/13 06:33:00;;;;;;;10.27;6.30;;;6.90;99.90;;;;;;4913426;28;20647;-70
2023/12/13 06:35:27;;;;;;;11.97;7.40;;;7.00;99.90;;;;;;4958757;28;20214;-70
2023/12/13 06:37:54;;;;;;;13.27;6.80;;;6.90;99.90;;;;;;4943617;28;20203;-70
2023/12/13 06:40:24;;;;;;;9.33;5.90;;;6.90;99.90;;;;;;4952220;28;20417;-70
2023/12/13 06:42:51;;;;;;;11.97;5.50;;;6.90;99.90;;;;;;4939505;28;20775;-70
2023/12/13 06:45:18;;;;;;;11.93;7.03;;;6.80;99.90;;;;;;4941808;28;20203;-70
2023/12/13 06:47:45;;;;;;;12.93;6.87;;;6.80;99.90;;;;;;4921546;28;20677;-69
2023/12/13 06:50:12;;;;;;;11.97;7.23;;;6.80;99.90;;;;;;4950775;28;20240;-70
2023/12/13 06:52:39;;;;;;;11.67;7.67;;;6.90;99.90;;;;;;4955900;28;20269;-70
2023/12/13 06:55:07;;;;;;;11.23;6.73;;;6.90;99.90;;;;;;4953912;28;20595;-70
2023/12/13 06:57:35;;;;;;;9.77;6.50;;;6.80;99.90;;;;;;4942309;28;20306;-70
2023/12/13 07:00:02;;;;;;;14.70;6.90;;;6.80;99.90;;;;;;4940337;28;20200;-70
2023/12/13 07:02:29;;;;;;;10.83;6.63;;;6.80;99.90;;;;;;4913461;28;20694;-70
2023/12/13 07:04:56;;;;;;;12.07;6.60;;;6.80;99.90;;;;;;4956939;28;20304;-70
2023/12/13 07:07:22;;;;;;;13.63;7.37;;;6.80;99.90;;;;;;4942421;28;20203;-70
2023/12/13 07:09:49;;;;;;;9.87;6.00;;;6.80;99.90;;;;;;4951371;28;20326;-70
2023/12/13 07:12:16;;;;;;;11.87;6.50;;;6.80;99.90;;;;;;4938976;28;20791;-70
2023/12/13 07:14:45;;;;;;;15.33;6.87;;;6.80;99.90;;;;;;4940870;28;20725;-70
2023/12/13 07:17:12;;;;;;;9.93;6.20;;;6.80;99.90;;;;;;4947032;28;20656;-70
2023/12/13 07:19:39;;;;;;;12.83;7.17;;;6.80;99.90;;;;;;4916089;28;20764;-70
2023/12/13 07:22:06;;;;;;;14.60;7.23;;;6.80;99.90;;;;;;4929157;28;20207;-70
2023/12/13 07:24:33;;;;;;;9.57;5.93;;;6.80;99.90;;;;;;4952825;28;20550;-70
2023/12/13 07:26:59;;;;;;;12.57;5.77;;;6.90;99.90;;;;;;4928208;28;20569;-70
2023/12/13 07:29:28;;;;;;;9.93;6.67;;;6.80;99.90;;;;;;4932432;28;20432;-70
2023/12/13 07:31:56;;;;;;;11.23;6.40;;;6.80;99.90;;;;;;4950774;28;20230;-70
2023/12/13 07:34:23;;;;;;;13.90;7.07;;;6.80;99.90;;;;;;4914617;28;21092;-70
2023/12/13 07:36:51;;;;;;;7.97;5.20;;;6.70;99.90;;;;;;4948291;28;20196;-70
2023/12/13 07:39:17;;;;;;;7.57;5.23;;;6.80;99.90;;;;;;4949085;28;20843;-70
2023/12/13 07:41:44;;;;;;;11.03;6.93;;;6.70;99.90;;;;;;4938464;28;20201;-70
2023/12/13 07:44:11;;;;;;;11.00;5.83;;;6.90;99.90;;;;;;4935005;28;21007;-70
2023/12/13 07:46:38;;;;;;;7.87;4.97;;;6.90;99.90;;;;;;4936307;28;20656;-70
2023/12/13 07:49:07;;;;;;;30.77;12.50;;;6.50;99.90;;;;;;4949802;28;20682;-70
2023/12/13 07:51:34;;;;;;;10.37;5.60;;;;;;;;;;4913849;28;20243;-70
2023/12/13 07:54:02;;;;;;;7.37;4.80;;;6.80;99.90;;;;;;4948267;28;20529;-70
2023/12/13 07:56:29;;;;;;;7.87;4.60;;;6.80;99.90;;;;;;4947883;28;20580;-70
2023/12/13 07:58:56;;;;;;;8.40;4.53;;;6.70;99.90;;;;;;4932356;28;20216;-70
2023/12/13 08:01:23;;;;;;;8.13;4.87;;;6.70;99.90;;;;;;4933899;28;21652;-70
2023/12/13 08:03:51;;;;;;;6.33;4.30;;;6.80;99.90;;;;;;4954041;28;20256;-70
2023/12/13 08:06:20;;;;;;;7.53;4.30;;;6.70;99.90;;;;;;4908265;28;20203;-70
2023/12/13 08:08:47;;;;;;;6.63;4.23;;;6.70;99.90;;;;;;4936747;28;20646;-70
2023/12/13 08:11:15;;;;;;;6.20;3.87;;;6.80;99.90;;;;;;4943807;28;20783;-70
2023/12/13 08:13:43;;;;;;;5.27;3.50;;;6.80;99.90;;;;;;4950092;28;20587;-70
2023/12/13 08:16:10;;;;;;;4.87;3.57;;;6.80;99.90;;;;;;4939659;28;20254;-70
2023/12/13 08:18:37;;;;;;;5.67;4.13;;;6.80;99.90;;;;;;4943240;28;20723;-70
2023/12/13 08:21:06;;;;;;;4.60;3.60;;;6.80;99.90;;;;;;4954676;28;20206;-70
2023/12/13 08:23:34;;;;;;;5.10;3.87;;;6.80;99.90;;;;;;4915619;28;20688;-70
2023/12/13 08:26:01;;;;;;;5.83;3.77;;;6.20;99.90;;;;;;4956367;28;20737;-70
2023/12/13 08:28:29;;;;;;;6.70;3.53;;;6.80;99.90;;;;;;4951842;28;20206;-70
2023/12/13 08:30:55;;;;;;;6.37;3.67;;;6.70;99.90;;;;;;4943825;28;20346;-70
2023/12/13 08:33:22;;;;;;;6.60;4.00;;;6.70;99.90;;;;;;4934960;28;20227;-70
2023/12/13 08:35:49;;;;;;;3.43;2.93;;;6.70;99.90;;;;;;4947201;28;20814;-70
2023/12/13 08:38:16;;;;;;;4.73;3.60;;;6.80;99.90;;;;;;4917943;28;20405;-70
2023/12/13 08:40:44;;;;;;;5.87;3.63;;;6.70;99.90;;;;;;4952335;28;20708;-70
2023/12/13 08:43:11;;;;;;;5.10;3.43;;;6.70;99.90;;;;;;4956932;28;20729;-70
2023/12/13 08:45:38;;;;;;;4.03;3.03;;;6.70;99.90;;;;;;4945848;28;21552;-71
2023/12/13 08:48:05;;;;;;;5.10;3.77;;;6.80;99.90;;;;;;4935406;28;20302;-70
2023/12/13 08:50:32;;;;;;;4.40;3.27;;;6.80;99.90;;;;;;4914593;28;20436;-70
2023/12/13 08:52:59;;;;;;;5.20;3.00;;;6.70;99.90;;;;;;4941576;28;20228;-69
2023/12/13 08:55:26;;;;;;;3.90;3.00;;;6.70;99.90;;;;;;4924048;28;20590;-70
2023/12/13 08:57:54;;;;;;;4.87;3.50;;;6.70;99.90;;;;;;4950615;28;20212;-70
2023/12/13 09:00:21;;;;;;;5.67;3.33;;;4.90;99.90;;;;;;4953369;28;20994;-70
2023/12/13 09:02:48;;;;;;;4.10;3.07;;;6.60;99.90;;;;;;4945300;28;20211;-70
2023/12/13 09:05:15;;;;;;;5.67;3.27;;;6.60;99.90;;;;;;4932961;28;20223;-70
2023/12/13 09:07:42;;;;;;;6.80;3.27;;;6.70;99.90;;;;;;4954101;28;20219;-70
2023/12/13 09:10:09;;;;;;;4.90;2.93;;;7.10;99.90;;;;;;4887572;28;20451;-70
2023/12/13 09:12:37;;;;;;;3.60;2.83;;;6.70;99.90;;;;;;4946946;28;20228;-70
2023/12/13 09:15:07;;;;;;;4.27;3.03;;;6.70;99.90;;;;;;4950176;28;20211;-70
2023/12/13 09:17:34;;;;;;;5.50;3.27;;;6.70;99.90;;;;;;4926847;28;20450;-70
2023/12/13 09:20:01;;;;;;;4.70;3.10;;;6.70;99.90;;;;;;4954580;28;20202;-70
2023/12/13 09:22:28;;;;;;;8.43;3.13;;;6.60;99.90;;;;;;4945882;28;20393;-70
2023/12/13 09:24:55;;;;;;;5.07;3.47;;;6.80;99.90;;;;;;4914815;28;20222;-70
2023/12/13 09:27:23;;;;;;;4.87;3.20;;;6.70;99.90;;;;;;4954625;28;20219;-70
2023/12/13 09:29:50;;;;;;;6.33;3.70;;;6.70;99.90;;;;;;4957846;28;20697;-70
2023/12/13 09:32:18;;;;;;;6.33;3.20;;;6.60;99.90;;;;;;4928055;28;20225;-70
2023/12/13 09:34:45;;;;;;;5.73;3.00;;;6.60;99.90;;;;;;4952797;28;20204;-70
2023/12/13 09:37:12;;;;;;;4.40;3.13;;;;;;;;;;4943995;28;20581;-70
2023/12/13 09:39:39;;;;;;;5.63;3.67;;;6.70;99.90;;;;;;4959324;28;20779;-70
2023/12/13 09:42:07;;;;;;;5.67;3.30;;;6.60;99.90;;;;;;4918045;28;20583;-70
2023/12/13 09:44:39;;;;;;;5.13;3.40;;;6.80;99.90;;;;;;4950989;28;21425;-70
2023/12/13 09:47:07;;;;;;;5.50;3.50;;;6.60;99.90;;;;;;4928454;28;20604;-70
2023/12/13 09:49:36;;;;;;;4.57;2.93;;;6.70;99.90;;;;;;4934773;28;20600;-70
2023/12/13 09:52:05;;;;;;;4.37;3.20;;;6.60;99.90;;;;;;4936698;28;20247;-70
2023/12/13 09:54:32;;;;;;;5.97;3.17;;;6.60;99.90;;;;;;4953255;28;20203;-70
2023/12/13 09:56:59;;;;;;;4.20;3.50;;;6.60;99.90;;;;;;4911429;28;20665;-70
2023/12/13 09:59:26;;;;;;;5.00;3.50;;;6.70;99.90;;;;;;4946835;28;20223;-70
2023/12/13 10:01:53;;;;;;;8.77;4.10;;;6.70;99.90;;;;;;4949455;28;20255;-70
2023/12/13 10:04:20;;;;;;;5.80;4.00;;;6.60;99.90;;;;;;4924653;28;20224;-70
2023/12/13 10:06:48;;;;;;;6.30;3.43;;;6.70;99.90;;;;;;4910695;28;20381;-70
2023/12/13 10:09:15;;;;;;;5.40;3.73;;;6.70;99.90;;;;;;4945548;28;20211;-70
2023/12/13 10:11:42;;;;;;;4.40;3.17;;;6.70;99.90;;;;;;4908753;28;20242;-70
2023/12/13 10:14:09;;;;;;;4.17;3.13;;;5.10;99.90;;;;;;4946048;28;20219;-70
2023/12/13 10:16:39;;;;;;;6.10;3.23;;;6.60;99.90;;;;;;4948091;28;20207;-70
2023/12/13 10:19:07;;;;;;;8.20;5.53;;;6.60;99.90;;;;;;4935786;28;20656;-70
2023/12/13 10:21:35;;;;;;;5.30;4.00;;;6.60;99.90;;;;;;4938654;28;20210;-70
2023/12/13 10:24:05;;;;;;;9.00;5.20;;;6.70;99.90;;;;;;4941927;28;20207;-70
2023/12/13 10:26:35;;;;;;;6.30;4.10;;;6.60;99.90;;;;;;4876831;28;21029;-70
2023/12/13 10:29:02;;;;;;;4.43;3.43;;;6.70;99.90;;;;;;4947481;28;20584;-70
2023/12/13 10:31:30;;;;;;;3.80;3.03;;;6.60;99.90;;;;;;4941537;28;20242;-70
2023/12/13 10:33:57;;;;;;;4.63;3.17;;;6.70;99.90;;;;;;4953397;28;20210;-70
2023/12/13 10:36:26;;;;;;;4.80;3.40;;;7.50;99.90;;;;;;4922658;28;20742;-70
2023/12/13 10:38:54;;;;;;;6.23;2.90;;;5.90;99.90;;;;;;4931517;28;20427;-70
2023/12/13 10:41:26;;;;;;;3.63;2.70;;;6.60;99.90;;;;;;4951736;28;21037;-70
2023/12/13 10:43:56;;;;;;;4.43;3.17;;;6.60;99.90;;;;;;4903161;28;20317;-70
2023/12/13 10:46:23;;;;;;;6.03;3.10;;;6.60;99.90;;;;;;4942928;28;20754;-70
2023/12/13 10:48:51;;;;;;;5.10;3.87;;;6.60;99.90;;;;;;4923179;28;20230;-70
2023/12/13 10:51:18;;;;;;;4.53;3.13;;;6.60;99.90;;;;;;4936172;28;20239;-70
2023/12/13 10:53:46;;;;;;;6.37;3.47;;;6.70;99.90;;;;;;4928706;28;20218;-70
2023/12/13 10:56:15;;;;;;;4.27;3.13;;;6.70;99.90;;;;;;4943996;28;20318;-70
2023/12/13 10:58:45;;;;;;;6.13;3.30;;;7.20;99.90;;;;;;4904898;28;20716;-70
2023/12/13 11:01:13;;;;;;;7.27;2.90;;;7.00;99.90;;;;;;4932064;28;20623;-70
2023/12/13 11:03:45;;;;;;;6.87;3.07;;;6.50;99.90;;;;;;4940151;28;20203;-70
2023/12/13 11:06:14;;;;;;;4.00;2.80;;;6.50;99.90;;;;;;4914440;28;20219;-70
2023/12/13 11:08:43;;;;;;;6.37;3.13;;;6.20;99.90;;;;;;4930096;28;20223;-70
2023/12/13 11:11:13;;;;;;;3.70;2.67;;;6.60;99.90;;;;;;4947170;28;20224;-70
2023/12/13 11:13:48;;;;;;;4.60;3.30;;;6.50;99.90;;;;;;4901136;28;20207;-70
2023/12/13 11:16:20;;;;;;;4.50;3.57;;;6.50;99.90;;;;;;4947387;28;20195;-70
2023/12/13 11:18:48;;;;;;;4.73;3.03;;;6.40;99.90;;;;;;4936812;28;20423;-70
2023/12/13 11:21:24;;;;;;;3.33;2.93;;;6.40;99.90;;;;;;4936339;28;20752;-70
2023/12/13 11:23:52;;;;;;;3.70;2.23;;;6.40;99.90;;;;;;4944197;28;20437;-70
2023/12/13 11:26:22;;;;;;;3.83;2.50;;;6.50;99.90;;;;;;4935500;28;20306;-70
2023/12/13 11:28:54;;;;;;;4.00;2.77;;;6.60;99.90;;;;;;4904270;28;20723;-70
2023/12/13 11:31:22;;;;;;;3.43;2.30;;;6.50;99.90;;;;;;4944340;28;20235;-70
2023/12/13 11:33:50;;;;;;;3.60;2.50;;;6.50;99.90;;;;;;4933999;28;20944;-70
2023/12/13 11:36:20;;;;;;;6.03;2.50;;;6.50;99.90;;;;;;4946979;28;20206;-70
2023/12/13 11:38:48;;;;;;;3.93;2.60;;;6.40;99.90;;;;;;4926390;28;20203;-70
2023/12/13 11:41:15;;;;;;;5.73;2.60;;;6.40;99.90;;;;;;4936049;28;20225;-70
2023/12/13 11:43:43;;;;;;;3.17;2.47;;;6.50;99.90;;;;;;4947090;28;20582;-70
2023/12/13 11:46:12;;;;;;;4.00;2.50;;;6.40;99.90;;;;;;4914135;28;20206;-70
2023/12/13 11:48:39;;;;;;;3.20;2.60;;;6.60;99.90;;;;;;4949794;28;20204;-71
2023/12/13 11:51:06;;;;;;;3.60;2.70;;;6.60;99.90;;;;;;4944590;28;20926;-70
2023/12/13 11:53:33;;;;;;;4.60;3.00;;;6.60;99.90;;;;;;4936840;28;20205;-70
2023/12/13 11:56:00;;;;;;;3.60;2.53;;;6.50;99.90;;;;;;4932785;28;20602;-70
2023/12/13 11:58:29;;;;;;;3.97;2.87;;;6.60;99.90;;;;;;4940974;28;20229;-70
2023/12/13 12:00:58;;;;;;;2.80;2.30;;;7.00;99.90;;;;;;4909928;28;21546;-70
2023/12/13 12:03:26;;;;;;;5.23;2.50;;;6.50;99.90;;;;;;4939818;28;20515;-69
2023/12/13 12:05:53;;;;;;;2.50;2.30;;;6.40;99.90;;;;;;4941056;28;20399;-69
2023/12/13 12:08:24;;;;;;;3.40;2.60;;;6.40;99.90;;;;;;4938011;28;20211;-69
2023/12/13 12:10:52;;;;;;;3.63;2.80;;;6.30;99.90;;;;;;4944671;28;20453;-69
2023/12/13 12:13:19;;;;;;;4.20;2.37;;;6.30;99.90;;;;;;4932810;28;20213;-69
2023/12/13 12:15:46;;;;;;;3.00;2.33;;;7.10;99.90;;;;;;4940222;28;20203;-69
2023/12/13 12:18:13;;;;;;;4.17;2.30;;;6.30;99.90;;;;;;4912344;28;20308;-69
2023/12/13 12:20:42;;;;;;;3.57;2.70;;;6.30;99.90;;;;;;4946757;28;20207;-69
2023/12/13 12:23:09;;;;;;;4.00;2.40;;;6.50;99.90;;;;;;4935485;28;20211;-69
2023/12/13 12:25:36;;;;;;;3.90;3.03;;;5.00;99.90;;;;;;4937806;28;20934;-69
2023/12/13 12:28:08;;;;;;;3.10;2.80;;;6.30;99.90;;;;;;4941410;28;20928;-69
2023/12/13 12:30:35;;;;;;;4.97;3.17;;;6.20;99.90;;;;;;4946855;28;20202;-69
2023/12/13 12:33:02;;;;;;;5.47;3.50;;;6.20;99.90;;;;;;4911559;28;20231;-69
2023/12/13 12:35:28;;;;;;;4.40;3.17;;;6.20;99.90;;;;;;4951506;28;20195;-69
2023/12/13 12:37:57;;;;;;;4.37;3.00;;;6.20;99.90;;;;;;4950995;28;20845;-69
2023/12/13 12:40:24;;;;;;;3.90;3.40;;;6.20;99.90;;;;;;4928665;28;20235;-69
2023/12/13 12:42:51;;;;;;;4.30;3.23;;;6.10;99.90;;;;;;4941213;28;20206;-69
2023/12/13 12:45:18;;;;;;;3.77;3.10;;;6.20;99.90;;;;;;4958663;28;20656;-69
2023/12/13 12:47:45;;;;;;;4.57;3.37;;;6.20;99.90;;;;;;4918712;28;28971;-69
2023/12/13 12:50:12;;;;;;;4.80;3.30;;;6.20;99.90;;;;;;4954179;28;20261;-69
2023/12/13 12:52:41;;;;;;;3.90;3.30;;;6.10;99.90;;;;;;4952658;28;20860;-69
2023/12/13 12:55:10;;;;;;;3.77;2.90;;;6.20;99.90;;;;;;4947861;28;20671;-69
2023/12/13 12:57:37;;;;;;;4.17;3.20;;;;;;;;;;4953718;28;20230;-69